Time;durP1;ratioP1;P1;durP2;ratioP2;P2;SDS_P1;SDS_P2;PMS_P1;PMS_P2;Temp;Humidity;BMP_temperature;BMP_pressure;BME280_temperature;BME280_humidity;BME280_pressure;Samples;Min_cycle;Max_cycle;Signal;HPM_P1;HPM_P2
2023/03/05 13:13:55;;;;;;;;;;;;;;;4.51;52.25;97811.63;6210101;22;19946;-63
2023/03/05 13:16:20;;;;;;;;;;;;;;;4.60;51.95;97806.88;6185342;23;19916;-64
2023/03/05 13:18:48;;;;;;;;;;;;;;;4.61;51.47;97808.53;6211809;23;19908;-62
2023/03/05 13:21:14;;;;;;;;;;;;;;;4.60;51.81;97806.88;6185401;23;19927;-63
2023/03/05 13:23:46;;;;;;;;;;;;;;;4.58;51.64;97806.97;6186675;23;19908;-62
2023/03/05 13:26:17;;;;;;;;;;;;;;;4.62;52.27;97802.44;6213952;23;19908;-62
2023/03/05 13:28:44;;;;;;;;;;;;;;;4.52;52.25;97805.50;6212930;23;19920;-63
2023/03/05 13:31:17;;;;;;;;;;;;;;;4.41;52.54;97805.22;6186821;23;19908;-62
2023/03/05 13:33:51;;;;;;;;;;;;;;;4.34;52.67;97806.44;6161749;23;19931;-63
2023/03/05 13:36:16;;;;;;;;;;;;;;;4.48;53.22;97803.16;6186733;23;19958;-62
2023/03/05 13:38:44;;;;;;;;;;;;;;;4.52;52.87;97797.72;6213076;23;19911;-62
2023/03/05 13:41:09;;;;;;;;;;;;;;;4.41;53.22;97800.00;6210302;23;19934;-62
2023/03/05 13:43:53;;;;;;;;;;;;;;;4.46;53.35;97798.00;6212330;23;20237;-62
2023/03/05 13:46:22;;;;;;;;;;;;;;;4.42;53.14;97793.91;6213459;23;19908;-63
2023/03/05 13:48:47;;;;;;;;;;;;;;;4.43;53.36;97785.19;6186720;23;19916;-63
2023/03/05 13:51:13;;;;;;;;;;;;;;;4.32;53.88;97782.28;6212572;23;19979;-62
2023/03/05 13:53:38;;;;;;;;;;;;;;;4.45;53.85;97779.94;6212748;23;19908;-63
2023/03/05 13:56:07;;;;;;;;;;;;;;;4.42;53.17;97780.06;6212099;23;19962;-62
2023/03/05 13:58:39;;;;;;;;;;;;;;;4.34;53.66;97770.09;6185923;23;19914;-63
2023/03/05 14:01:08;;;;;;;;;;;;;;;4.22;54.34;97771.53;6212247;23;19911;-63
2023/03/05 14:03:34;;;;;;;;;;;;;;;4.13;54.53;97765.94;6186293;23;19962;-62
2023/03/05 14:05:59;;;;;;;;;;;;;;;4.24;54.64;97768.88;6212914;23;19908;-62
2023/03/05 14:08:25;;;;;;;;;;;;;;;4.19;54.92;97765.63;6161968;23;19923;-63
2023/03/05 14:10:50;;;;;;;;;;;;;;;4.29;54.53;97761.66;6183435;23;19912;-64
2023/03/05 14:13:19;;;;;;;;;;;;;;;4.44;54.72;97758.31;6183551;23;19923;-62
2023/03/05 14:16:20;;;;;;;;;;;;;;;4.45;54.38;97754.78;6211546;23;19912;-63
2023/03/05 14:18:53;;;;;;;;;;;;;;;4.53;54.59;97755.22;6091073;23;20280;-62
2023/03/05 14:21:18;;;;;;;;;;;;;;;4.56;54.72;97749.03;6088984;23;19909;-63
2023/03/05 14:23:45;;;;;;;;;;;;;;;4.57;54.42;97745.53;6090875;23;19920;-63
2023/03/05 14:26:10;;;;;;;;;;;;;;;4.67;54.46;97740.69;6068505;23;19931;-63
2023/03/05 14:28:36;;;;;;;;;;;;;;;4.50;54.27;97738.97;6091668;23;20360;-62
2023/03/05 14:31:01;;;;;;;;;;;;;;;4.46;53.83;97743.47;6068390;23;19936;-63
2023/03/05 14:33:30;;;;;;;;;;;;;;;4.49;53.80;97735.53;6091863;23;20357;-62
2023/03/05 14:35:56;;;;;;;;;;;;;;;4.43;54.49;97738.44;6091335;23;20333;-63
2023/03/05 14:38:25;;;;;;;;;;;;;;;4.34;54.01;97730.31;6067951;23;19909;-62
2023/03/05 14:40:50;;;;;;;;;;;;;;;4.39;54.43;97728.28;6068332;23;19910;-63
2023/03/05 14:43:16;;;;;;;;;;;;;;;4.34;54.84;97733.72;6092089;23;19952;-63
2023/03/05 14:45:42;;;;;;;;;;;;;;;4.15;55.31;97727.78;6092558;23;20076;-62
2023/03/05 14:48:07;;;;;;;;;;;;;;;4.25;55.49;97723.81;6068747;23;19914;-62
2023/03/05 14:50:53;;;;;;;;;;;;;;;4.29;55.20;97722.72;6068694;23;19909;-63
2023/03/05 14:53:22;;;;;;;;;;;;;;;4.38;55.65;97717.06;6156392;23;20365;-62
2023/03/05 14:55:49;;;;;;;;;;;;;;;4.39;55.76;97721.34;6187240;23;19931;-62
2023/03/05 14:58:20;;;;;;;;;;;;;;;4.35;55.60;97716.41;6160776;23;19931;-63
2023/03/05 15:00:45;;;;;;;;;;;;;;;4.22;55.44;97713.56;6188220;23;20335;-62
2023/03/05 15:03:11;;;;;;;;;;;;;;;4.19;55.85;97709.38;6213983;23;19914;-63
2023/03/05 15:05:36;;;;;;;;;;;;;;;4.12;56.62;97702.81;6187751;23;19908;-63
2023/03/05 15:08:01;;;;;;;;;;;;;;;4.24;56.30;97701.38;6212838;23;20323;-63
2023/03/05 15:10:26;;;;;;;;;;;;;;;4.34;56.73;97694.78;6215025;23;19987;-63
2023/03/05 15:12:52;;;;;;;;;;;;;;;4.45;56.22;97695.06;6215449;23;19936;-63
2023/03/05 15:15:18;;;;;;;;;;;;;;;4.43;56.21;97688.25;6215239;23;19908;-63
2023/03/05 15:17:46;;;;;;;;;;;;;;;4.39;55.86;97686.75;6188219;23;19908;-62
2023/03/05 15:20:15;;;;;;;;;;;;;;;4.35;56.96;97685.22;6188644;23;19975;-63
2023/03/05 15:22:40;;;;;;;;;;;;;;;4.37;56.91;97683.38;6188528;23;19908;-63
2023/03/05 15:25:06;;;;;;;;;;;;;;;4.28;57.18;97682.13;6215205;23;19908;-63
2023/03/05 15:27:31;;;;;;;;;;;;;;;4.27;57.08;97683.88;6215561;23;20374;-63
2023/03/05 15:29:58;;;;;;;;;;;;;;;4.33;57.58;97677.50;6214164;23;19918;-63
2023/03/05 15:32:26;;;;;;;;;;;;;;;4.34;57.28;97666.22;6214891;23;19908;-63
2023/03/05 15:34:51;;;;;;;;;;;;;;;4.36;57.41;97669.56;6188161;23;19915;-63
2023/03/05 15:37:16;;;;;;;;;;;;;;;4.36;57.10;97663.53;6215331;23;19908;-63
2023/03/05 15:39:41;;;;;;;;;;;;;;;4.29;57.92;97657.81;6214679;23;19912;-63
2023/03/05 15:42:07;;;;;;;;;;;;;;;4.30;57.72;97659.50;6214031;23;19915;-63
2023/03/05 15:44:32;;;;;;;;;;;;;;;4.25;58.19;97645.94;6214752;23;19914;-63
2023/03/05 15:46:57;;;;;;;;;;;;;;;4.27;57.95;97644.09;6213147;23;19994;-62
2023/03/05 15:49:23;;;;;;;;;;;;;;;4.28;58.32;97638.81;6214195;23;19943;-63
2023/03/05 15:51:48;;;;;;;;;;;;;;;4.28;58.29;97640.56;6211791;23;19947;-63
2023/03/05 15:54:13;;;;;;;;;;;;;;;4.27;58.47;97644.94;6213790;23;20316;-63
2023/03/05 15:56:39;;;;;;;;;;;;;;;4.27;58.04;97638.91;6213140;23;19908;-63
2023/03/05 15:59:04;;;;;;;;;;;;;;;4.24;60.03;97641.66;6213115;23;19908;-63
2023/03/05 16:01:30;;;;;;;;;;;;;;;4.26;58.45;97642.41;6186710;23;19994;-63
2023/03/05 16:03:55;;;;;;;;;;;;;;;4.27;58.50;97638.91;6213051;23;19912;-63
2023/03/05 16:06:22;;;;;;;;;;;;;;;4.18;58.35;97629.81;6212776;23;19934;-63
2023/03/05 16:08:47;;;;;;;;;;;;;;;4.20;58.02;97637.56;6213810;23;19912;-63
2023/03/05 16:11:12;;;;;;;;;;;;;;;4.19;58.13;97630.66;6187474;23;20350;-64
2023/03/05 16:13:37;;;;;;;;;;;;;;;4.19;58.07;97630.66;6185921;23;20344;-63
2023/03/05 16:16:03;;;;;;;;;;;;;;;4.20;57.96;97627.16;6213058;23;20328;-62
2023/03/05 16:18:28;;;;;;;;;;;;;;;4.17;57.80;97624.72;6186069;23;20415;-62
2023/03/05 16:20:54;;;;;;;;;;;;;;;4.12;57.71;97619.75;6214510;23;19913;-62
2023/03/05 16:23:20;;;;;;;;;;;;;;;4.10;57.62;97615.59;6186722;23;19942;-62
2023/03/05 16:25:45;;;;;;;;;;;;;;;4.04;58.41;97617.56;6187697;23;19912;-63
2023/03/05 16:28:11;;;;;;;;;;;;;;;4.09;58.23;97621.66;6214337;23;19915;-63
2023/03/05 16:30:37;;;;;;;;;;;;;;;4.07;58.52;97615.75;6214644;23;19908;-62
2023/03/05 16:33:02;;;;;;;;;;;;;;;4.12;59.68;97609.38;6186976;23;19937;-62
2023/03/05 16:35:27;;;;;;;;;;;;;;;4.15;58.94;97608.38;6214199;23;19908;-62
2023/03/05 16:37:52;;;;;;;;;;;;;;;4.09;58.60;97600.91;6214508;23;20344;-63
2023/03/05 16:40:17;;;;;;;;;;;;;;;4.04;58.36;97599.41;6214367;23;20340;-65
2023/03/05 16:42:43;;;;;;;;;;;;;;;4.03;58.18;97594.31;6187167;23;20394;-64
2023/03/05 16:45:08;;;;;;;;;;;;;;;3.90;58.77;97598.44;6186883;23;20336;-64
2023/03/05 16:47:34;;;;;;;;;;;;;;;3.87;58.46;97601.19;6213519;23;19915;-63
2023/03/05 16:49:59;;;;;;;;;;;;;;;3.88;58.65;97603.69;6213738;23;20332;-63
2023/03/05 16:52:24;;;;;;;;;;;;;;;3.89;58.99;97601.94;6213798;23;20345;-65
2023/03/05 16:54:50;;;;;;;;;;;;;;;3.91;59.26;97600.09;6186861;23;19908;-64
2023/03/05 16:57:15;;;;;;;;;;;;;;;3.85;59.08;97603.00;6213650;23;19911;-64
2023/03/05 16:59:42;;;;;;;;;;;;;;;3.86;59.49;97604.72;6213619;23;20338;-64
2023/03/05 17:02:07;;;;;;;;;;;;;;;3.80;59.68;97598.91;6214056;23;19908;-63
2023/03/05 17:04:32;;;;;;;;;;;;;;;3.78;59.88;97603.31;6214003;23;20418;-63
2023/03/05 17:06:57;;;;;;;;;;;;;;;3.78;59.67;97589.50;6212235;23;20362;-64
2023/03/05 17:09:23;;;;;;;;;;;;;;;3.79;61.42;97601.59;6214132;23;19919;-64
2023/03/05 17:11:51;;;;;;;;;;;;;;;3.83;61.02;97595.31;6186902;23;19986;-63
2023/03/05 17:14:17;;;;;;;;;;;;;;;3.76;60.46;97596.56;6187749;23;20259;-64
2023/03/05 17:16:42;;;;;;;;;;;;;;;3.76;60.66;97587.00;6186539;23;20335;-63
2023/03/05 17:19:07;;;;;;;;;;;;;;;3.76;60.62;97597.38;6187328;23;19907;-63
2023/03/05 17:21:32;;;;;;;;;;;;;;;3.75;60.52;97585.34;6186957;23;19912;-62
2023/03/05 17:23:57;;;;;;;;;;;;;;;3.73;60.69;97594.94;6212899;23;19963;-64
2023/03/05 17:26:23;;;;;;;;;;;;;;;3.69;60.54;97595.19;6186401;23;19958;-64
2023/03/05 17:28:48;;;;;;;;;;;;;;;3.65;61.05;97591.03;6213844;23;19911;-64
2023/03/05 17:31:13;;;;;;;;;;;;;;;3.61;61.06;97585.16;6187652;23;19908;-63
2023/03/05 17:33:40;;;;;;;;;;;;;;;3.62;61.56;97599.00;6213410;23;20003;-64
2023/03/05 17:36:09;;;;;;;;;;;;;;;3.59;62.10;97589.63;6186354;23;20426;-64
2023/03/05 17:38:34;;;;;;;;;;;;;;;3.59;62.04;97597.41;6187566;23;20003;-63
2023/03/05 17:40:59;;;;;;;;;;;;;;;3.53;62.41;97585.56;6213919;23;19908;-63
2023/03/05 17:43:25;;;;;;;;;;;;;;;3.53;62.55;97585.56;6212844;23;19912;-62
2023/03/05 17:45:50;;;;;;;;;;;;;;;3.53;62.13;97590.75;6211331;23;19973;-63
2023/03/05 17:48:15;;;;;;;;;;;;;;;3.53;62.38;97588.16;6213576;23;20210;-64
2023/03/05 17:50:41;;;;;;;;;;;;;;;3.57;62.64;97591.44;6213848;23;19977;-63
2023/03/05 17:53:06;;;;;;;;;;;;;;;3.55;62.62;97586.34;6186409;23;19908;-63
2023/03/05 17:55:31;;;;;;;;;;;;;;;3.54;63.04;97583.81;6214006;23;19908;-63
2023/03/05 17:57:56;;;;;;;;;;;;;;;3.51;63.22;97582.22;6213662;23;20239;-63
2023/03/05 18:00:22;;;;;;;;;;;;;;;3.50;63.19;97585.72;6214747;23;20251;-63
2023/03/05 18:02:48;;;;;;;;;;;;;;;3.50;63.43;97590.91;6188452;23;19971;-62
2023/03/05 18:05:13;;;;;;;;;;;;;;;3.50;63.65;97588.31;6183986;23;19915;-64
2023/03/05 18:07:38;;;;;;;;;;;;;;;3.46;63.36;97584.19;6214133;23;19908;-63
2023/03/05 18:10:03;;;;;;;;;;;;;;;3.43;63.51;97584.34;6189544;23;19940;-63
2023/03/05 18:12:29;;;;;;;;;;;;;;;3.33;64.22;97583.13;6188593;23;19919;-64
2023/03/05 18:14:54;;;;;;;;;;;;;;;3.37;64.15;97583.81;6216554;23;20320;-64
2023/03/05 18:17:21;;;;;;;;;;;;;;;3.36;64.45;97584.72;6187719;23;20442;-64
2023/03/05 18:19:46;;;;;;;;;;;;;;;3.32;64.18;97586.63;6189813;23;19912;-64
2023/03/05 18:22:11;;;;;;;;;;;;;;;3.34;64.41;97590.00;6215418;23;20291;-64
2023/03/05 18:24:37;;;;;;;;;;;;;;;3.35;64.86;97583.91;6216019;23;20244;-64
2023/03/05 18:27:02;;;;;;;;;;;;;;;3.35;64.84;97586.50;6214616;23;20275;-64
2023/03/05 18:29:27;;;;;;;;;;;;;;;3.32;64.35;97582.28;6215516;23;19912;-64
2023/03/05 18:31:53;;;;;;;;;;;;;;;3.33;64.48;97581.38;6214608;23;19915;-63
2023/03/05 18:34:19;;;;;;;;;;;;;;;3.36;64.83;97576.97;6215597;23;19914;-64
2023/03/05 18:36:45;;;;;;;;;;;;;;;3.36;64.73;97576.97;6214671;23;19907;-64
2023/03/05 18:39:10;;;;;;;;;;;;;;;3.34;64.43;97569.28;6215036;23;19966;-64
2023/03/05 18:41:36;;;;;;;;;;;;;;;3.35;64.76;97572.69;6188379;23;19916;-63
2023/03/05 18:44:03;;;;;;;;;;;;;;;3.36;65.05;97571.78;6214665;23;19927;-64
2023/03/05 18:46:28;;;;;;;;;;;;;;;3.36;64.34;97567.41;6188906;23;19915;-63
2023/03/05 18:48:53;;;;;;;;;;;;;;;3.35;64.11;97564.91;6214581;23;19912;-63
2023/03/05 18:51:20;;;;;;;;;;;;;;;3.34;64.44;97564.09;6215518;23;19914;-64
2023/03/05 18:53:45;;;;;;;;;;;;;;;3.30;64.58;97562.53;6163846;23;20316;-63
2023/03/05 18:56:12;;;;;;;;;;;;;;;3.26;64.79;97566.19;6215019;23;19931;-63
2023/03/05 18:58:38;;;;;;;;;;;;;;;3.24;65.33;97568.03;6214953;23;19991;-63
2023/03/05 19:01:03;;;;;;;;;;;;;;;3.17;65.30;97566.66;6215723;23;19939;-63
2023/03/05 19:03:28;;;;;;;;;;;;;;;3.16;65.15;97557.19;6187294;23;19919;-63
2023/03/05 19:05:54;;;;;;;;;;;;;;;3.14;65.25;97565.06;6214885;23;19908;-63
2023/03/05 19:08:19;;;;;;;;;;;;;;;3.12;65.49;97558.25;6215537;23;19908;-63
2023/03/05 19:10:44;;;;;;;;;;;;;;;3.14;65.43;97561.63;6215296;23;19908;-63
2023/03/05 19:15:54;;;;;;;;;;;;;;;3.07;65.44;97561.94;6214144;23;19982;-63
2023/03/05 19:18:19;;;;;;;;;;;;;;;3.10;65.52;97555.75;6215566;23;19908;-63
2023/03/05 19:20:44;;;;;;;;;;;;;;;3.07;65.14;97554.16;6215967;23;20176;-63
2023/03/05 19:23:10;;;;;;;;;;;;;;;3.02;64.90;97548.34;6213265;23;20002;-62
2023/03/05 19:25:35;;;;;;;;;;;;;;;3.04;65.01;97546.53;6214556;23;20339;-63
2023/03/05 19:28:00;;;;;;;;;;;;;;;3.08;65.19;97542.88;6214949;23;19982;-63
2023/03/05 19:30:25;;;;;;;;;;;;;;;6.19;68.61;97532.66;6213753;23;19947;-63
2023/03/05 19:32:50;;;;;;;;;;;;;;;5.24;60.11;97543.50;6214638;23;19915;-62
2023/03/05 19:35:16;;;;;;;;;;;;;;;4.74;60.66;97547.19;6187548;23;19912;-63
2023/03/05 19:37:41;;;;;;;;;;;;;;;4.50;60.43;97541.59;6214898;23;19908;-63
2023/03/05 19:40:07;;;;;;;;;;;;;;;4.22;61.57;97544.84;6214946;23;19908;-63
2023/03/05 19:42:35;;;;;;;;;;;;;;;3.97;61.95;97543.56;6187903;23;19914;-63
2023/03/05 19:45:00;;;;;;;;;;;;;;;3.83;62.58;97540.84;6187531;23;19908;-63
2023/03/05 19:47:25;;;;;;;;;;;;;;;3.70;63.43;97535.44;6215357;23;19919;-63
2023/03/05 19:49:51;;;;;;;;;;;;;;;3.65;63.58;97544.34;6215153;23;19962;-62
2023/03/05 19:52:16;;;;;;;;;;;;;;;3.55;63.86;97542.25;6214295;23;19975;-63
2023/03/05 19:54:41;;;;;;;;;;;;;;;3.50;63.45;97533.84;6213773;23;20332;-62
2023/03/05 19:57:06;;;;;;;;;;;;;;;3.47;64.01;97534.00;6215272;23;19908;-63
2023/03/05 19:59:32;;;;;;;;;;;;;;;3.44;64.43;97523.81;6214884;23;20331;-63
2023/03/05 20:01:57;;;;;;;;;;;;;;;3.41;64.31;97533.50;6214291;23;20324;-63
2023/03/05 20:04:22;;;;;;;;;;;;;;;3.36;64.52;97535.47;6187951;23;20349;-63
2023/03/05 20:06:47;;;;;;;;;;;;;;;3.34;64.71;97527.78;6214828;23;19962;-63
2023/03/05 20:09:13;;;;;;;;;;;;;;;3.33;64.62;97523.50;6215149;23;19911;-63
2023/03/05 20:11:38;;;;;;;;;;;;;;;3.32;64.51;97520.06;6214489;23;19966;-63
2023/03/05 20:14:03;;;;;;;;;;;;;;;3.28;64.59;97525.50;6214535;23;19962;-63
2023/03/05 20:16:30;;;;;;;;;;;;;;;3.27;64.48;97521.25;6213953;23;19975;-63
2023/03/05 20:18:55;;;;;;;;;;;;;;;3.23;64.53;97522.28;6188343;23;19908;-63
2023/03/05 20:21:22;;;;;;;;;;;;;;;3.20;65.09;97525.88;6187647;23;19912;-62
2023/03/05 20:23:57;;;;;;;;;;;;;;;3.18;65.23;97525.13;6214493;23;19908;-63
2023/03/05 20:26:22;;;;;;;;;;;;;;;3.16;65.37;97526.09;6187701;23;20262;-63
2023/03/05 20:28:47;;;;;;;;;;;;;;;3.14;65.06;97521.00;6215074;23;20316;-63
2023/03/05 20:31:13;;;;;;;;;;;;;;;3.14;64.76;97525.34;6214998;23;19908;-63
2023/03/05 20:33:38;;;;;;;;;;;;;;;3.12;65.33;97519.41;6213152;23;20232;-62
2023/03/05 20:36:03;;;;;;;;;;;;;;;3.08;65.26;97514.38;6214462;23;20034;-62
2023/03/05 20:38:29;;;;;;;;;;;;;;;3.03;65.58;97515.53;6214974;23;19927;-62
2023/03/05 20:40:54;;;;;;;;;;;;;;;3.05;65.44;97511.91;6215580;23;20234;-62
2023/03/05 20:43:20;;;;;;;;;;;;;;;3.03;65.80;97513.75;6213798;23;20288;-62
2023/03/05 20:45:45;;;;;;;;;;;;;;;3.03;65.72;97506.00;6186523;23;19908;-62
2023/03/05 20:48:10;;;;;;;;;;;;;;;3.04;65.40;97507.66;6213148;23;19987;-62
2023/03/05 20:50:35;;;;;;;;;;;;;;;3.02;66.01;97506.88;6214674;23;19912;-62
2023/03/05 20:53:02;;;;;;;;;;;;;;;3.04;65.61;97505.06;6214115;23;19908;-63
2023/03/05 20:55:27;;;;;;;;;;;;;;;3.05;65.29;97498.97;6214007;23;19976;-62
2023/03/05 20:57:53;;;;;;;;;;;;;;;3.03;65.17;97502.56;6214097;23;20332;-62
2023/03/05 21:00:19;;;;;;;;;;;;;;;3.04;65.85;97499.06;6214797;23;19908;-62
2023/03/05 21:02:44;;;;;;;;;;;;;;;3.01;65.29;97500.03;6213216;23;19907;-62
2023/03/05 21:05:09;;;;;;;;;;;;;;;3.03;65.88;97497.38;6214353;23;19912;-62
2023/03/05 21:07:34;;;;;;;;;;;;;;;2.99;65.66;97486.31;6213394;23;19908;-62
2023/03/05 21:09:59;;;;;;;;;;;;;;;3.01;65.80;97494.84;6213698;23;19958;-62
2023/03/05 21:12:25;;;;;;;;;;;;;;;3.02;66.46;97488.75;6213524;23;19986;-62
2023/03/05 21:14:50;;;;;;;;;;;;;;;3.02;65.91;97487.91;6213282;23;19931;-62
2023/03/05 21:17:16;;;;;;;;;;;;;;;3.03;66.79;97485.25;6213689;23;19912;-62
2023/03/05 21:19:41;;;;;;;;;;;;;;;3.04;66.57;97484.34;6213482;23;19908;-62
2023/03/05 21:22:07;;;;;;;;;;;;;;;3.01;66.00;97479.31;6213378;23;19954;-62
2023/03/05 21:24:42;;;;;;;;;;;;;;;2.99;66.65;97478.53;6212837;23;19907;-62
2023/03/05 21:27:07;;;;;;;;;;;;;;;3.03;66.58;97469.72;6212634;23;20516;-63
2023/03/05 21:29:33;;;;;;;;;;;;;;;3.05;66.34;97469.63;6213953;23;19919;-62
2023/03/05 21:32:00;;;;;;;;;;;;;;;3.08;66.76;97469.47;6212217;23;21325;-62
2023/03/05 21:34:25;;;;;;;;;;;;;;;3.27;71.36;97466.81;6213379;23;19999;-62
2023/03/05 21:36:51;;;;;;;;;;;;;;;3.58;74.59;97468.66;6211651;23;19908;-62
2023/03/05 21:39:16;;;;;;;;;;;;;;;3.88;74.72;97466.19;6213390;23;19916;-62
2023/03/05 21:41:45;;;;;;;;;;;;;;;4.22;73.43;97462.59;6213712;23;19908;-62
2023/03/05 21:44:14;;;;;;;;;;;;;;;4.52;74.25;97461.84;6187452;23;20247;-62
2023/03/05 21:46:41;;;;;;;;;;;;;;;4.73;71.19;97452.84;6212900;23;19907;-61
2023/03/05 21:49:06;;;;;;;;;;;;;;;4.89;70.75;97447.63;6212762;23;20309;-62
